Time;durP1;ratioP1;P1;durP2;ratioP2;P2;SDS_P1;SDS_P2;PMS_P1;PMS_P2;Temp;Humidity;BMP_temperature;BMP_pressure;BME280_temperature;BME280_humidity;BME280_pressure;Samples;Min_cycle;Max_cycle;Signal;HPM_P1;HPM_P2
2023/05/19 03:16:06;;;;;;;1.52;0.30;;;11.30;83.50;;;;;;6159158;22;89282;31
2023/05/19 03:18:33;;;;;;;4.00;0.40;;;11.40;83.50;;;;;;6185283;22;86920;-71
2023/05/19 03:20:58;;;;;;;1.92;0.63;;;11.40;84.40;;;;;;6185172;22;87337;-72
2023/05/19 03:23:25;;;;;;;2.20;0.57;;;11.40;84.50;;;;;;6184502;22;87841;-70
2023/05/19 03:25:53;;;;;;;3.45;0.60;;;11.30;85.00;;;;;;6185162;22;87330;-72
2023/05/19 03:28:18;;;;;;;4.90;0.50;;;11.30;85.30;;;;;;6186527;22;86651;-70
2023/05/19 03:30:44;;;;;;;3.45;0.47;;;11.30;85.10;;;;;;6183831;22;87745;-69
2023/05/19 03:33:10;;;;;;;3.95;0.90;;;11.30;84.60;;;;;;6184847;22;87782;-69
2023/05/19 03:35:36;;;;;;;2.42;0.60;;;11.30;84.90;;;;;;6184639;22;88577;-72
2023/05/19 03:38:02;;;;;;;1.98;0.55;;;11.30;85.20;;;;;;6186249;22;87561;-70
2023/05/19 03:40:27;;;;;;;2.25;0.73;;;11.30;85.00;;;;;;6185352;22;87806;-70
2023/05/19 03:42:53;;;;;;;3.55;0.75;;;11.30;84.90;;;;;;6185717;22;87346;-71
2023/05/19 03:45:19;;;;;;;3.05;0.73;;;11.40;85.10;;;;;;6185765;22;87520;-71
2023/05/19 03:47:46;;;;;;;3.75;0.75;;;11.40;84.90;;;;;;6186463;22;87286;-69
2023/05/19 03:50:12;;;;;;;2.92;0.50;;;11.40;85.40;;;;;;6185357;22;87799;-70
2023/05/19 03:52:38;;;;;;;2.60;0.73;;;11.40;85.50;;;;;;6185972;22;86710;-69
2023/05/19 03:55:05;;;;;;;2.00;0.65;;;11.40;85.30;;;;;;6186206;22;87579;-72
2023/05/19 03:57:32;;;;;;;4.10;0.50;;;11.40;85.00;;;;;;6186461;22;87297;-71
2023/05/19 03:59:58;;;;;;;3.42;0.90;;;11.50;85.60;;;;;;6184934;22;88916;-69
2023/05/19 04:02:24;;;;;;;2.30;0.77;;;11.50;85.20;;;;;;6183745;22;88935;-73
2023/05/19 04:04:51;;;;;;;1.85;0.55;;;11.50;84.90;;;;;;6185200;22;87388;-69
2023/05/19 04:07:16;;;;;;;2.28;0.60;;;11.50;85.20;;;;;;6185893;22;87449;-71
2023/05/19 04:09:42;;;;;;;3.60;0.70;;;11.60;85.20;;;;;;6184427;22;88330;-75
2023/05/19 04:12:08;;;;;;;3.83;0.70;;;11.60;84.90;;;;;;6185168;22;88349;-74
2023/05/19 04:14:33;;;;;;;2.70;0.73;;;11.70;84.90;;;;;;6184722;22;87424;-70
2023/05/19 04:16:59;;;;;;;3.75;0.90;;;11.80;85.00;;;;;;6195506;22;86725;-71
2023/05/19 04:19:25;;;;;;;2.90;0.73;;;11.80;84.50;;;;;;6214316;22;88695;-71
2023/05/19 04:21:50;;;;;;;2.55;0.73;;;11.90;84.90;;;;;;6214950;22;87437;-70
2023/05/19 04:24:16;;;;;;;2.33;0.50;;;12.00;84.50;;;;;;6215243;22;88666;-70
2023/05/19 04:26:44;;;;;;;3.45;0.98;;;12.00;84.70;;;;;;6215213;22;88306;-68
2023/05/19 04:29:12;;;;;;;3.03;1.13;;;12.00;84.80;;;;;;6213610;22;89009;-71
2023/05/19 04:31:41;;;;;;;1.90;0.63;;;12.00;85.40;;;;;;6215023;22;88405;-71
2023/05/19 04:34:06;;;;;;;4.82;0.77;;;12.10;85.50;;;;;;6215457;22;87141;-69
2023/05/19 04:36:32;;;;;;;3.92;1.42;;;12.20;85.70;;;;;;6215713;22;87342;-68
2023/05/19 04:39:08;;;;;;;2.97;0.77;;;12.40;85.00;;;;;;6214839;22;88212;-71
2023/05/19 04:41:34;;;;;;;5.28;0.80;;;12.60;84.40;;;;;;6216660;22;87843;-72
2023/05/19 04:43:59;;;;;;;2.17;0.70;;;13.00;83.00;;;;;;6217618;22;87022;-70
2023/05/19 04:46:26;;;;;;;4.05;0.77;;;13.30;82.20;;;;;;6218758;22;87197;-71
2023/05/19 04:48:54;;;;;;;2.58;1.00;;;13.50;81.40;;;;;;6215497;22;88478;-71
2023/05/19 04:51:20;;;;;;;3.30;1.30;;;13.50;80.90;;;;;;6217439;22;89390;-70
2023/05/19 04:53:45;;;;;;;2.25;0.90;;;13.50;80.50;;;;;;6208827;22;87645;-72
2023/05/19 04:56:14;;;;;;;3.10;1.10;;;13.50;80.00;;;;;;6198078;22;87606;-71
2023/05/19 04:58:40;;;;;;;2.63;0.93;;;13.50;80.00;;;;;;6203585;22;88146;-70
2023/05/19 05:01:08;;;;;;;5.47;1.00;;;13.60;80.10;;;;;;6211893;22;87883;-73
2023/05/19 05:03:34;;;;;;;2.83;0.88;;;13.50;79.70;;;;;;6211867;22;87342;-73
2023/05/19 05:06:00;;;;;;;6.28;1.23;;;13.50;79.90;;;;;;6217266;22;86625;-71
2023/05/19 05:08:26;;;;;;;5.50;1.17;;;13.40;80.20;;;;;;6214513;22;88810;-69
2023/05/19 05:10:52;;;;;;;3.25;1.13;;;13.30;80.90;;;;;;6216178;22;88218;-74
2023/05/19 05:13:22;;;;;;;6.53;1.60;;;13.40;80.10;;;;;;6217487;22;88307;-69
2023/05/19 05:15:48;;;;;;;4.45;1.02;;;13.40;80.10;;;;;;6192115;22;87465;-73
2023/05/19 05:18:15;;;;;;;3.35;0.90;;;13.40;80.80;;;;;;6212274;22;89965;-71
2023/05/19 05:20:45;;;;;;;3.63;0.63;;;13.40;81.20;;;;;;6211583;22;89897;-71
2023/05/19 05:23:13;;;;;;;2.10;0.57;;;13.50;80.90;;;;;;6212913;22;87393;-70
2023/05/19 05:25:43;;;;;;;4.47;0.70;;;13.50;80.70;;;;;;6217111;22;87326;-70
2023/05/19 05:28:09;;;;;;;4.22;0.70;;;13.60;80.60;;;;;;6216982;22;88284;-69
2023/05/19 05:30:35;;;;;;;2.58;0.73;;;13.60;80.40;;;;;;6216265;22;87966;-70
2023/05/19 05:33:01;;;;;;;4.30;0.68;;;13.60;79.90;;;;;;6216893;22;87322;-72
2023/05/19 05:35:27;;;;;;;3.63;0.90;;;13.60;80.30;;;;;;6213146;22;87505;-70
2023/05/19 05:37:55;;;;;;;2.78;0.68;;;13.90;79.60;;;;;;6187708;22;90186;-72
2023/05/19 05:40:20;;;;;;;2.28;0.80;;;14.00;78.90;;;;;;6188551;22;91710;-69
2023/05/19 05:42:46;;;;;;;3.53;0.77;;;14.20;78.40;;;;;;6215021;22;87323;-76
2023/05/19 05:45:12;;;;;;;3.85;0.70;;;14.50;78.10;;;;;;6216669;22;87371;-74
2023/05/19 05:47:40;;;;;;;2.83;0.57;;;14.60;77.60;;;;;;6215571;22;87385;-76
2023/05/19 05:50:07;;;;;;;2.03;0.55;;;14.70;77.30;;;;;;6215073;22;88801;-78
2023/05/19 05:52:34;;;;;;;2.40;0.73;;;14.70;76.10;;;;;;6214879;22;87281;-72
2023/05/19 05:55:00;;;;;;;3.25;0.70;;;14.90;76.10;;;;;;6215760;22;86588;-73
2023/05/19 05:57:29;;;;;;;1.95;0.52;;;15.10;75.10;;;;;;6214017;22;88595;-73
2023/05/19 05:59:55;;;;;;;5.05;0.75;;;15.00;74.70;;;;;;6213538;22;88656;-75
2023/05/19 06:02:21;;;;;;;2.08;0.60;;;15.50;73.90;;;;;;6215614;22;88392;-74
2023/05/19 06:04:46;;;;;;;2.92;0.70;;;15.80;72.30;;;;;;6217659;22;87444;-74
2023/05/19 06:07:12;;;;;;;4.80;0.60;;;15.80;72.50;;;;;;6215801;22;88143;-74
2023/05/19 06:09:38;;;;;;;4.50;0.73;;;16.20;71.90;;;;;;6216273;22;88378;-76
2023/05/19 06:12:05;;;;;;;3.13;0.90;;;16.40;71.90;;;;;;6215882;22;87480;-76
2023/05/19 06:14:30;;;;;;;2.63;0.60;;;16.80;71.60;;;;;;6187928;22;87621;-73
2023/05/19 06:16:56;;;;;;;2.78;0.63;;;17.10;69.40;;;;;;6212821;22;88886;-72
2023/05/19 06:19:23;;;;;;;2.97;0.73;;;17.40;68.60;;;;;;6216572;22;89919;-72
2023/05/19 06:21:50;;;;;;;2.45;0.70;;;17.50;67.40;;;;;;6217196;22;87439;-73
2023/05/19 06:24:15;;;;;;;4.95;0.75;;;17.80;67.50;;;;;;6216234;22;87306;-73
2023/05/19 06:26:41;;;;;;;3.22;0.80;;;17.90;66.20;;;;;;6215266;22;89494;-73
2023/05/19 06:29:07;;;;;;;3.63;0.93;;;17.60;66.20;;;;;;6216578;22;89183;-75
2023/05/19 06:31:33;;;;;;;3.63;0.88;;;17.50;67.60;;;;;;6189953;22;87445;-72
2023/05/19 06:33:58;;;;;;;2.50;0.73;;;17.60;66.90;;;;;;6216812;22;87449;-73
2023/05/19 06:36:24;;;;;;;2.92;0.70;;;17.30;67.30;;;;;;6215856;22;87814;-73
2023/05/19 06:38:50;;;;;;;3.65;0.90;;;17.70;67.10;;;;;;6216134;22;87879;-72
2023/05/19 06:41:16;;;;;;;4.07;0.98;;;18.60;66.70;;;;;;6217355;22;87267;-70
2023/05/19 06:43:42;;;;;;;2.55;0.40;;;19.60;63.70;;;;;;6218676;22;86499;-71
2023/05/19 06:46:07;;;;;;;2.00;1.08;;;20.30;62.60;;;;;;6217940;22;88411;-73
2023/05/19 06:48:33;;;;;;;2.08;0.73;;;20.90;59.30;;;;;;6217168;22;87964;-73
2023/05/19 06:50:59;;;;;;;3.70;0.85;;;21.60;58.60;;;;;;6213578;22;88311;-72
2023/05/19 06:53:24;;;;;;;2.83;1.50;;;23.00;57.10;;;;;;6218429;22;87398;-74
2023/05/19 06:55:50;;;;;;;2.30;1.02;;;24.30;55.50;;;;;;6216029;22;87513;-72
2023/05/19 06:58:16;;;;;;;7.53;1.27;;;24.40;51.20;;;;;;6218195;22;88000;-72
2023/05/19 07:00:42;;;;;;;2.72;1.40;;;24.40;51.40;;;;;;6218931;22;87063;-72
2023/05/19 07:03:08;;;;;;;3.17;0.90;;;24.20;52.00;;;;;;6218830;22;87462;-71
2023/05/19 07:05:34;;;;;;;3.13;0.90;;;23.60;51.70;;;;;;6216668;22;87289;-71
2023/05/19 07:08:00;;;;;;;4.82;2.03;;;22.90;53.50;;;;;;6217687;22;87796;-72
2023/05/19 07:10:26;;;;;;;2.65;1.15;;;22.40;54.20;;;;;;6217859;22;87269;-72
2023/05/19 07:12:52;;;;;;;4.30;1.27;;;22.30;55.00;;;;;;6218805;22;87031;-72
2023/05/19 07:15:17;;;;;;;5.50;0.88;;;22.20;53.80;;;;;;6217434;22;88953;-72
2023/05/19 07:17:43;;;;;;;4.22;2.03;;;22.30;55.00;;;;;;6191211;22;91293;-72
2023/05/19 07:20:09;;;;;;;2.95;1.02;;;22.50;54.30;;;;;;6217830;22;87282;-72
2023/05/19 07:22:35;;;;;;;2.90;0.93;;;23.20;55.20;;;;;;6218392;22;87376;-72
2023/05/19 07:25:01;;;;;;;1.83;0.98;;;23.50;53.00;;;;;;6217921;22;88764;-72
2023/05/19 07:27:27;;;;;;;6.05;1.20;;;23.90;51.10;;;;;;6218234;22;87442;-73
2023/05/19 07:29:53;;;;;;;4.30;1.23;;;24.60;51.10;;;;;;6218046;22;87451;-73
2023/05/19 07:32:19;;;;;;;3.17;1.10;;;25.60;50.20;;;;;;6218605;22;86861;-71
2023/05/19 07:34:45;;;;;;;4.70;1.65;;;25.50;47.60;;;;;;6218355;22;87485;-73
2023/05/19 07:37:11;;;;;;;2.38;1.20;;;25.80;47.30;;;;;;6217292;22;88072;-72
2023/05/19 07:39:36;;;;;;;3.25;1.60;;;26.40;48.40;;;;;;6217311;22;88390;-72
2023/05/19 07:42:02;;;;;;;5.47;3.45;;;27.60;46.80;;;;;;6217368;22;87323;-73
2023/05/19 07:44:30;;;;;;;4.00;1.35;;;29.30;44.70;;;;;;6217607;22;88125;-74
2023/05/19 07:46:56;;;;;;;3.15;1.65;;;30.40;43.40;;;;;;6217872;22;87278;-73
2023/05/19 07:49:22;;;;;;;4.15;1.55;;;31.10;41.70;;;;;;6218614;22;87254;-74
2023/05/19 07:51:47;;;;;;;2.30;1.55;;;31.10;40.30;;;;;;6218054;22;87404;-72
2023/05/19 07:54:13;;;;;;;4.35;1.75;;;31.00;40.50;;;;;;6217367;22;88707;-75
2023/05/19 07:56:39;;;;;;;2.63;1.58;;;30.80;40.80;;;;;;6217582;22;87856;-73
2023/05/19 07:59:06;;;;;;;3.75;2.05;;;30.20;41.00;;;;;;6218071;22;87233;-73
2023/05/19 08:01:32;;;;;;;5.60;2.28;;;30.60;40.80;;;;;;6217871;22;86974;-74
2023/05/19 08:03:58;;;;;;;3.45;1.55;;;31.00;40.80;;;;;;6216751;22;89579;-72
2023/05/19 08:06:24;;;;;;;2.78;1.52;;;30.80;39.30;;;;;;6217199;22;88075;-73
2023/05/19 08:08:50;;;;;;;6.22;2.08;;;31.10;40.00;;;;;;6216587;22;87010;-76
2023/05/19 08:11:16;;;;;;;3.08;1.80;;;31.80;40.10;;;;;;6216579;22;87522;-75
2023/05/19 08:13:42;;;;;;;4.50;2.05;;;32.10;37.70;;;;;;6190507;22;88243;-75
2023/05/19 08:16:08;;;;;;;3.83;2.17;;;31.50;38.20;;;;;;6217357;22;87303;-73
2023/05/19 08:18:33;;;;;;;4.22;2.70;;;31.80;39.20;;;;;;6219066;22;87396;-73
2023/05/19 08:21:00;;;;;;;5.70;2.53;;;31.20;38.60;;;;;;6219902;22;86591;-73
2023/05/19 08:23:25;;;;;;;5.13;1.75;;;29.60;40.20;;;;;;6218870;22;88648;-71
2023/05/19 08:25:51;;;;;;;2.35;1.40;;;28.10;41.80;;;;;;6218218;22;87384;-73
2023/05/19 08:28:17;;;;;;;3.92;1.58;;;27.00;43.00;;;;;;6218790;22;88441;-72
2023/05/19 08:30:42;;;;;;;4.63;1.73;;;26.70;44.70;;;;;;6219209;22;87514;-75
2023/05/19 08:33:08;;;;;;;4.45;1.45;;;27.20;44.50;;;;;;6218594;22;87185;-71
2023/05/19 08:35:34;;;;;;;2.80;1.30;;;27.10;44.00;;;;;;6219011;22;87572;-73
2023/05/19 08:38:00;;;;;;;3.08;1.45;;;26.30;45.10;;;;;;6218803;22;87271;-71
2023/05/19 08:40:30;;;;;;;3.97;1.55;;;25.80;45.30;;;;;;6219857;22;87287;-72
2023/05/19 08:42:55;;;;;;;2.72;1.30;;;25.40;46.50;;;;;;6219190;22;88562;-73
2023/05/19 08:45:21;;;;;;;2.58;1.55;;;25.60;46.50;;;;;;6219047;22;88704;-71
2023/05/19 08:47:49;;;;;;;2.65;1.40;;;26.10;45.60;;;;;;6215816;22;87337;-73
2023/05/19 08:50:24;;;;;;;2.90;1.10;;;26.20;45.60;;;;;;6219695;22;89122;-71
2023/05/19 08:53:00;;;;;;;5.03;1.70;;;26.10;46.80;;;;;;6217530;22;88556;-73
2023/05/19 08:55:45;;;;;;;4.40;1.80;;;26.50;45.50;;;;;;6218950;22;88218;-72
2023/05/19 08:58:12;;;;;;;2.92;1.15;;;26.40;45.30;;;;;;6219400;22;86980;-72
2023/05/19 09:00:38;;;;;;;3.60;1.70;;;26.60;45.80;;;;;;6218503;22;87356;-73
2023/05/19 09:03:04;;;;;;;3.28;1.65;;;26.10;44.80;;;;;;6217768;22;88566;-72
2023/05/19 09:05:30;;;;;;;5.00;1.65;;;25.80;46.50;;;;;;6218735;22;87695;-70
2023/05/19 09:07:56;;;;;;;3.78;1.88;;;25.30;47.20;;;;;;6218745;22;87604;-71
2023/05/19 09:10:22;;;;;;;6.65;2.25;;;25.50;47.60;;;;;;6219095;22;86906;-70
2023/05/19 09:12:48;;;;;;;5.25;1.80;;;26.70;46.20;;;;;;6218960;22;87239;-72
2023/05/19 09:15:20;;;;;;;4.78;1.90;;;28.20;44.00;;;;;;6192449;22;88104;-70
2023/05/19 09:17:48;;;;;;;3.20;1.85;;;29.40;43.10;;;;;;6217234;22;88193;-73
2023/05/19 09:20:16;;;;;;;5.03;1.85;;;30.20;42.40;;;;;;6219280;22;87392;-73
2023/05/19 09:22:46;;;;;;;3.55;2.00;;;30.40;41.50;;;;;;6218715;22;89561;-72
2023/05/19 09:25:56;;;;;;;4.38;2.40;;;30.50;41.30;;;;;;6215167;22;87871;-73
2023/05/19 09:28:26;;;;;;;3.00;1.95;;;30.90;40.40;;;;;;6218240;22;87698;-71
2023/05/19 09:31:03;;;;;;;3.45;2.15;;;30.80;39.60;;;;;;6220005;22;87266;-72
2023/05/19 09:33:31;;;;;;;4.03;2.38;;;30.90;40.10;;;;;;6191625;22;89324;-72
2023/05/19 09:35:57;;;;;;;4.70;2.42;;;31.20;40.20;;;;;;6219045;22;87964;-73
2023/05/19 09:38:26;;;;;;;3.97;2.28;;;31.50;39.00;;;;;;6218995;22;87519;-72
2023/05/19 09:40:55;;;;;;;4.32;2.53;;;31.80;39.50;;;;;;6219417;22;87297;-71
2023/05/19 09:43:21;;;;;;;4.32;2.42;;;31.60;39.50;;;;;;6218026;22;88587;-75
2023/05/19 09:45:47;;;;;;;4.05;3.13;;;31.50;40.70;;;;;;6218621;22;88694;-71
2023/05/19 09:48:14;;;;;;;5.05;2.40;;;31.80;39.80;;;;;;6219135;22;87396;-71
2023/05/19 09:50:44;;;;;;;4.25;2.60;;;31.60;39.20;;;;;;6219255;22;87344;-71
2023/05/19 09:53:15;;;;;;;5.40;2.70;;;31.40;39.80;;;;;;6218418;22;88058;-71
2023/05/19 09:55:41;;;;;;;3.67;2.47;;;31.50;39.10;;;;;;6218676;22;88089;-71
2023/05/19 09:58:08;;;;;;;4.25;2.50;;;30.90;39.90;;;;;;6217863;22;87220;-71
2023/05/19 10:00:34;;;;;;;3.58;2.05;;;30.30;40.10;;;;;;6218459;22;87502;-72
2023/05/19 10:03:02;;;;;;;4.78;2.92;;;29.40;41.70;;;;;;6218618;22;87478;-72
2023/05/19 10:05:28;;;;;;;4.63;2.00;;;29.00;42.30;;;;;;6218619;22;87713;-73
2023/05/19 10:07:54;;;;;;;5.32;2.45;;;28.00;42.50;;;;;;6215460;22;88195;-70
2023/05/19 10:10:21;;;;;;;4.60;2.05;;;27.40;44.10;;;;;;6218657;22;87541;-71
2023/05/19 10:12:48;;;;;;;4.60;1.80;;;26.80;44.40;;;;;;6218020;22;88060;-72
2023/05/19 10:15:16;;;;;;;5.32;2.25;;;26.40;45.50;;;;;;6218675;22;87709;-70
2023/05/19 10:17:43;;;;;;;4.28;1.70;;;26.70;45.70;;;;;;6215036;22;87375;-72
2023/05/19 10:20:11;;;;;;;4.97;1.95;;;26.50;46.80;;;;;;6218785;22;87173;-70
2023/05/19 10:22:37;;;;;;;4.97;2.08;;;25.70;46.00;;;;;;6217180;22;87927;-73
2023/05/19 10:25:04;;;;;;;6.80;2.85;;;25.40;47.10;;;;;;6216796;22;87189;-70
2023/05/19 10:27:32;;;;;;;5.32;1.83;;;25.00;47.10;;;;;;6218003;22;87265;-72
2023/05/19 10:30:06;;;;;;;3.70;1.75;;;24.40;48.60;;;;;;6218296;22;87278;-70
2023/05/19 10:32:32;;;;;;;5.00;1.88;;;24.40;49.80;;;;;;6217627;22;89289;-71
2023/05/19 10:35:26;;;;;;;5.18;1.85;;;24.60;47.90;;;;;;6217721;22;88744;-72
2023/05/19 10:38:06;;;;;;;4.32;2.28;;;24.60;49.60;;;;;;6218613;22;87493;-70
2023/05/19 10:40:36;;;;;;;3.92;1.95;;;24.20;48.90;;;;;;6216604;22;87292;-70
2023/05/19 10:43:20;;;;;;;6.53;1.88;;;23.50;50.30;;;;;;6212028;22;87832;-72
2023/05/19 10:45:56;;;;;;;6.03;2.28;;;23.10;51.70;;;;;;6216639;22;88885;-71
2023/05/19 10:48:22;;;;;;;4.90;1.73;;;22.90;52.00;;;;;;6218229;22;87328;-72
2023/05/19 10:50:52;;;;;;;4.97;2.03;;;22.90;52.20;;;;;;6218222;22;86503;-72
2023/05/19 10:53:21;;;;;;;6.93;1.80;;;23.00;51.60;;;;;;6218237;22;88658;-69
2023/05/19 10:56:02;;;;;;;5.45;1.90;;;22.70;51.20;;;;;;6218641;22;88562;-71
2023/05/19 10:58:38;;;;;;;5.50;1.90;;;22.50;51.90;;;;;;6215128;22;88378;-70
2023/05/19 11:01:15;;;;;;;6.38;1.80;;;22.50;52.80;;;;;;6216081;22;87280;-70
2023/05/19 11:03:52;;;;;;;4.72;1.52;;;22.60;52.60;;;;;;6216996;22;88062;-71
2023/05/19 11:06:23;;;;;;;5.75;1.80;;;22.90;52.80;;;;;;6215851;22;87326;-71
2023/05/19 11:08:57;;;;;;;4.22;1.92;;;23.10;52.20;;;;;;6216249;22;87267;-70
2023/05/19 11:11:23;;;;;;;3.47;1.77;;;23.40;51.70;;;;;;6217506;22;87160;-69
2023/05/19 11:13:56;;;;;;;8.07;1.77;;;23.60;51.50;;;;;;6215622;22;88520;-71
2023/05/19 11:16:30;;;;;;;4.13;2.03;;;23.70;50.20;;;;;;6215448;22;87148;-71
2023/05/19 11:18:57;;;;;;;5.25;1.55;;;23.70;51.10;;;;;;6216332;22;87810;-71
2023/05/19 11:21:23;;;;;;;3.83;1.77;;;23.60;50.70;;;;;;6215735;22;87454;-72
2023/05/19 11:23:50;;;;;;;4.30;2.05;;;23.60;52.00;;;;;;6214730;22;89628;-71
2023/05/19 11:26:40;;;;;;;5.20;1.88;;;23.20;51.10;;;;;;6214843;22;89263;-71
2023/05/19 11:29:06;;;;;;;4.93;1.95;;;23.20;51.90;;;;;;6216073;22;87400;-70
2023/05/19 11:31:35;;;;;;;4.20;1.85;;;23.20;51.90;;;;;;6216190;22;87332;-71
2023/05/19 11:34:00;;;;;;;4.43;1.73;;;23.20;52.20;;;;;;6214816;22;87047;-70
2023/05/19 11:36:27;;;;;;;4.70;1.55;;;23.20;53.30;;;;;;6214584;22;87648;-72
2023/05/19 11:38:54;;;;;;;3.67;1.65;;;23.00;51.70;;;;;;6215181;22;87006;-71
2023/05/19 11:41:20;;;;;;;4.85;1.60;;;22.80;52.10;;;;;;6216543;22;86567;-72
2023/05/19 11:43:46;;;;;;;6.25;1.90;;;22.80;52.60;;;;;;6215509;22;87814;-70
2023/05/19 11:46:12;;;;;;;5.72;1.88;;;22.80;53.80;;;;;;6215798;22;87565;-72
2023/05/19 11:48:38;;;;;;;5.18;2.03;;;22.90;52.60;;;;;;6214393;22;88865;-70
2023/05/19 11:51:05;;;;;;;7.57;1.80;;;23.10;52.80;;;;;;6215720;22;87502;-74
2023/05/19 11:53:34;;;;;;;7.28;2.05;;;23.10;52.00;;;;;;6216578;22;88191;-71
2023/05/19 11:56:03;;;;;;;;;;;23.20;51.60;;;;;;6217778;22;87731;-72
2023/05/19 11:58:29;;;;;;;4.53;1.67;;;23.50;51.80;;;;;;6218931;22;87040;-74
2023/05/19 12:00:55;;;;;;;4.80;1.98;;;23.70;51.70;;;;;;6217462;22;87320;-69
2023/05/19 12:03:26;;;;;;;4.50;1.90;;;23.40;52.30;;;;;;6216682;22;89070;-70
2023/05/19 12:05:52;;;;;;;3.85;2.05;;;23.60;51.60;;;;;;6217845;22;87073;-69
2023/05/19 12:08:18;;;;;;;3.60;1.90;;;23.50;51.70;;;;;;6215251;22;87249;-71
2023/05/19 12:10:49;;;;;;;3.58;1.70;;;23.40;52.10;;;;;;6217149;22;87342;-70
2023/05/19 12:13:15;;;;;;;5.50;2.08;;;23.50;51.70;;;;;;6216021;22;88229;-69
2023/05/19 12:15:41;;;;;;;5.88;2.13;;;23.20;51.00;;;;;;6215698;22;87362;-69
2023/05/19 12:18:07;;;;;;;3.97;1.90;;;23.10;52.00;;;;;;6217318;22;87258;-69
2023/05/19 12:20:34;;;;;;;6.22;2.75;;;23.20;53.90;;;;;;6217064;22;87324;-71
2023/05/19 12:23:00;;;;;;;6.43;2.15;;;23.10;52.30;;;;;;6214856;22;88192;-73
2023/05/19 12:25:27;;;;;;;6.20;2.13;;;23.20;52.70;;;;;;6213178;22;87036;-70
2023/05/19 12:28:01;;;;;;;5.85;1.98;;;23.30;52.90;;;;;;6213984;22;87295;-72
2023/05/19 12:30:28;;;;;;;4.68;1.88;;;23.30;53.10;;;;;;6215621;22;86776;-72
2023/05/19 12:32:56;;;;;;;4.60;2.05;;;23.30;52.00;;;;;;6213765;22;87602;-71
2023/05/19 12:35:34;;;;;;;5.10;2.00;;;23.30;52.80;;;;;;6212833;22;88734;-69
2023/05/19 12:38:06;;;;;;;6.43;2.42;;;23.30;53.10;;;;;;6212992;22;88389;-71
2023/05/19 12:40:33;;;;;;;6.22;2.20;;;23.20;53.70;;;;;;6214291;22;87252;-71
2023/05/19 12:42:59;;;;;;;6.47;2.25;;;22.90;53.10;;;;;;6213664;22;87635;-70
2023/05/19 12:45:27;;;;;;;9.02;2.40;;;23.10;53.40;;;;;;6213123;22;87370;-72
2023/05/19 12:47:53;;;;;;;5.95;2.33;;;22.90;54.30;;;;;;6212100;22;87356;-70
2023/05/19 12:50:19;;;;;;;5.75;2.17;;;22.90;53.90;;;;;;6213977;22;87237;-72
2023/05/19 12:52:50;;;;;;;7.53;2.17;;;22.90;52.80;;;;;;6216320;22;87361;-69
2023/05/19 12:55:19;;;;;;;6.80;2.20;;;22.90;54.20;;;;;;6216272;22;87918;-72
2023/05/19 12:57:49;;;;;;;7.05;2.55;;;23.00;54.00;;;;;;6217107;22;87346;-74
2023/05/19 13:00:20;;;;;;;4.97;1.65;;;23.10;53.80;;;;;;6216891;22;87482;-69
2023/05/19 13:03:01;;;;;;;5.65;2.17;;;22.70;53.00;;;;;;6216059;22;88527;-70
2023/05/19 13:05:36;;;;;;;4.43;1.65;;;22.60;53.70;;;;;;6215096;22;89312;-75
2023/05/19 13:08:10;;;;;;;8.45;1.70;;;22.70;54.80;;;;;;6189445;22;87395;-72
2023/05/19 13:10:38;;;;;;;5.75;1.67;;;22.80;55.10;;;;;;6217163;22;87448;-71
2023/05/19 13:13:04;;;;;;;8.95;2.15;;;22.90;54.10;;;;;;6215309;22;87772;-71
2023/05/19 13:15:34;;;;;;;5.03;1.80;;;22.60;53.40;;;;;;6213535;22;87975;-69
2023/05/19 13:18:02;;;;;;;4.18;1.42;;;22.50;53.70;;;;;;6213384;22;87463;-71
2023/05/19 13:20:27;;;;;;;5.63;1.42;;;22.60;53.80;;;;;;6215996;22;86868;-72
2023/05/19 13:22:53;;;;;;;6.82;2.00;;;22.60;53.90;;;;;;6213988;22;88093;-71
2023/05/19 13:25:20;;;;;;;5.35;1.27;;;22.30;53.40;;;;;;6215153;22;87872;-71
2023/05/19 13:27:46;;;;;;;5.60;1.58;;;22.10;54.60;;;;;;6215036;22;88481;-70
2023/05/19 13:30:13;;;;;;;4.50;1.52;;;22.00;54.00;;;;;;6212905;22;87417;-71
2023/05/19 13:32:38;;;;;;;4.13;1.55;;;21.90;55.10;;;;;;6213743;22;88348;-72
2023/05/19 13:35:05;;;;;;;5.85;1.98;;;21.70;55.50;;;;;;6215155;22;88324;-70
2023/05/19 13:37:31;;;;;;;7.65;1.50;;;21.70;56.40;;;;;;6216119;22;87271;-71
2023/05/19 13:39:57;;;;;;;5.10;1.42;;;21.70;56.30;;;;;;6217383;22;87379;-72
2023/05/19 13:42:23;;;;;;;6.72;1.40;;;21.50;55.80;;;;;;6216051;22;87223;-70
2023/05/19 13:44:48;;;;;;;6.22;1.75;;;21.40;56.30;;;;;;6217076;22;87725;-72
2023/05/19 13:47:14;;;;;;;4.75;1.35;;;21.40;56.70;;;;;;6217077;22;87886;-70
2023/05/19 13:49:40;;;;;;;4.25;1.02;;;21.20;56.20;;;;;;6216639;22;87316;-71
2023/05/19 13:52:06;;;;;;;4.05;1.60;;;20.90;57.10;;;;;;6215970;22;89108;-71
2023/05/19 13:54:32;;;;;;;6.90;1.55;;;20.70;57.40;;;;;;6215841;22;88716;-71
2023/05/19 13:56:59;;;;;;;6.43;1.40;;;20.90;57.40;;;;;;6217403;22;87257;-72
2023/05/19 13:59:25;;;;;;;3.95;1.20;;;20.80;56.80;;;;;;6215743;22;87444;-70
2023/05/19 14:01:50;;;;;;;5.95;1.55;;;20.50;58.00;;;;;;6216213;22;88698;-74
2023/05/19 14:04:17;;;;;;;5.50;1.00;;;20.30;58.50;;;;;;6216894;22;87961;-70
2023/05/19 14:06:43;;;;;;;6.15;1.13;;;20.30;58.60;;;;;;6215644;22;87577;-70
2023/05/19 14:09:09;;;;;;;4.80;1.40;;;20.20;58.80;;;;;;6217367;22;86643;-69
2023/05/19 14:11:35;;;;;;;6.03;1.70;;;20.20;59.40;;;;;;6216551;22;88646;-70
2023/05/19 14:14:02;;;;;;;4.15;1.40;;;20.10;59.80;;;;;;6215692;22;88148;-70
2023/05/19 14:16:29;;;;;;;6.72;1.73;;;20.00;60.60;;;;;;6216625;22;88673;-70
2023/05/19 14:18:55;;;;;;;5.03;1.35;;;19.90;60.00;;;;;;6215108;22;87639;-70
2023/05/19 14:21:21;;;;;;;5.97;1.40;;;19.80;61.60;;;;;;6217246;22;88404;-69
2023/05/19 14:23:47;;;;;;;3.80;1.30;;;19.90;61.40;;;;;;6216593;22;89431;-70
2023/05/19 14:26:12;;;;;;;6.10;1.90;;;19.90;62.80;;;;;;6215930;22;87396;-70
2023/05/19 14:28:38;;;;;;;6.43;1.65;;;19.90;61.80;;;;;;6217484;22;87370;-69
2023/05/19 14:31:04;;;;;;;3.78;1.48;;;20.00;62.70;;;;;;6215325;22;88260;-71
2023/05/19 14:33:30;;;;;;;4.45;1.40;;;19.80;62.30;;;;;;6216767;22;88313;-75
2023/05/19 14:35:58;;;;;;;7.60;1.85;;;20.00;61.90;;;;;;6216477;22;87361;-70
2023/05/19 14:38:25;;;;;;;9.43;1.98;;;20.00;62.70;;;;;;6216654;22;87269;-73
2023/05/19 14:40:50;;;;;;;5.88;1.63;;;20.10;63.10;;;;;;6216397;22;89553;-72
2023/05/19 14:43:16;;;;;;;6.18;1.70;;;20.10;62.10;;;;;;6216135;22;90990;-70
2023/05/19 14:45:42;;;;;;;4.13;1.60;;;20.10;62.20;;;;;;6215838;22;87262;-70
2023/05/19 14:48:10;;;;;;;4.28;1.42;;;20.10;61.50;;;;;;6216623;22;87168;-71
2023/05/19 14:50:36;;;;;;;5.50;1.95;;;19.90;62.70;;;;;;6216146;22;87605;-72
2023/05/19 14:53:02;;;;;;;8.02;2.25;;;20.00;62.40;;;;;;6216867;22;87808;-74
2023/05/19 14:55:27;;;;;;;10.48;2.00;;;20.00;61.70;;;;;;6216979;22;87787;-73
2023/05/19 14:57:53;;;;;;;5.70;1.75;;;19.70;62.30;;;;;;6215003;22;86626;-75
2023/05/19 15:00:19;;;;;;;6.95;2.38;;;19.60;62.00;;;;;;6216833;22;88259;-73
2023/05/19 15:02:45;;;;;;;4.93;1.73;;;19.60;62.00;;;;;;6216444;22;88587;-75
2023/05/19 15:05:10;;;;;;;7.38;2.53;;;19.60;62.40;;;;;;6216273;22;88362;-70
2023/05/19 15:07:36;;;;;;;7.00;2.20;;;19.50;62.20;;;;;;6188967;22;87514;-71
2023/05/19 15:10:03;;;;;;;8.02;2.85;;;19.30;62.90;;;;;;6215587;22;88474;-71
2023/05/19 15:12:29;;;;;;;8.35;2.90;;;19.30;63.00;;;;;;6216774;22;87647;-73
2023/05/19 15:14:55;;;;;;;7.70;2.80;;;19.30;62.80;;;;;;6216330;22;87302;-70
2023/05/19 15:17:20;;;;;;;5.20;2.55;;;19.30;62.20;;;;;;6212639;22;87538;-72
2023/05/19 15:19:46;;;;;;;6.90;2.42;;;19.10;63.00;;;;;;6213386;22;87585;-74
2023/05/19 15:22:12;;;;;;;7.22;2.00;;;19.00;64.90;;;;;;6214132;22;88150;-71
2023/05/19 15:24:38;;;;;;;7.07;2.58;;;19.00;64.50;;;;;;6216841;22;87032;-73
2023/05/19 15:27:04;;;;;;;10.52;3.13;;;19.10;64.70;;;;;;6215366;22;87025;-72
2023/05/19 15:29:29;;;;;;;7.35;2.72;;;19.00;63.90;;;;;;6215410;22;88710;-71
2023/05/19 15:31:56;;;;;;;9.63;2.75;;;19.00;63.60;;;;;;6215370;22;88863;-74
2023/05/19 15:34:21;;;;;;;11.52;3.67;;;19.00;64.60;;;;;;6215647;22;87333;-72
2023/05/19 15:36:47;;;;;;;8.23;3.03;;;18.80;63.70;;;;;;6217419;22;87726;-72
2023/05/19 15:39:13;;;;;;;10.55;5.20;;;18.80;64.40;;;;;;6215687;22;88379;-73
2023/05/19 15:41:38;;;;;;;7.10;3.78;;;18.80;64.20;;;;;;6216528;22;87938;-72
2023/05/19 15:44:05;;;;;;;7.60;2.83;;;18.80;65.60;;;;;;6215433;22;87455;-73
2023/05/19 15:46:31;;;;;;;6.28;2.78;;;18.70;65.40;;;;;;6215509;22;86565;-74
2023/05/19 15:48:57;;;;;;;7.35;3.47;;;18.60;64.70;;;;;;6213703;22;87993;-73
2023/05/19 15:51:23;;;;;;;6.95;3.15;;;18.50;65.60;;;;;;6215301;22;87414;-73
2023/05/19 15:53:49;;;;;;;7.68;3.28;;;18.40;64.10;;;;;;6215738;22;88574;-72
2023/05/19 15:56:14;;;;;;;6.40;3.40;;;18.10;63.90;;;;;;6215994;22;87196;-73
2023/05/19 15:58:40;;;;;;;8.40;3.63;;;18.00;65.00;;;;;;6214344;22;88385;-71
2023/05/19 16:01:07;;;;;;;9.00;3.15;;;17.90;65.00;;;;;;6211193;22;88507;-78
2023/05/19 16:03:33;;;;;;;10.35;3.92;;;17.80;66.00;;;;;;6211595;22;87434;-74